sensor_id;sensor_type;location;lat;lon;timestamp;P1;durP1;ratioP1;P2;durP2;ratioP2
21848;SDS011;11089;49.852;19.700;2023-03-23T00:02:32;8.85;;;5.38;;
21848;SDS011;11089;49.852;19.700;2023-03-23T00:05:35;10.30;;;6.00;;
21848;SDS011;11089;49.852;19.700;2023-03-23T00:08:38;9.90;;;4.95;;
21848;SDS011;11089;49.852;19.700;2023-03-23T00:11:45;11.57;;;6.10;;
21848;SDS011;11089;49.852;19.700;2023-03-23T00:14:46;8.70;;;5.30;;
21848;SDS011;11089;49.852;19.700;2023-03-23T00:17:47;10.85;;;5.40;;
21848;SDS011;11089;49.852;19.700;2023-03-23T00:20:50;9.05;;;5.60;;
21848;SDS011;11089;49.852;19.700;2023-03-23T00:23:55;9.02;;;5.60;;
21848;SDS011;11089;49.852;19.700;2023-03-23T00:26:57;10.48;;;5.40;;
21848;SDS011;11089;49.852;19.700;2023-03-23T00:29:58;8.45;;;5.60;;
21848;SDS011;11089;49.852;19.700;2023-03-23T00:33:00;7.10;;;4.68;;
21848;SDS011;11089;49.852;19.700;2023-03-23T00:36:01;12.57;;;5.63;;
21848;SDS011;11089;49.852;19.700;2023-03-23T00:39:03;8.18;;;5.00;;
21848;SDS011;11089;49.852;19.700;2023-03-23T00:42:04;8.93;;;4.97;;
21848;SDS011;11089;49.852;19.700;2023-03-23T00:45:05;8.07;;;5.22;;
21848;SDS011;11089;49.852;19.700;2023-03-23T00:48:11;8.40;;;5.30;;
21848;SDS011;11089;49.852;19.700;2023-03-23T00:51:14;7.93;;;5.22;;
21848;SDS011;11089;49.852;19.700;2023-03-23T00:54:15;9.05;;;5.18;;
21848;SDS011;11089;49.852;19.700;2023-03-23T00:57:16;7.53;;;5.20;;
21848;SDS011;11089;49.852;19.700;2023-03-23T01:00:18;6.20;;;4.82;;
21848;SDS011;11089;49.852;19.700;2023-03-23T01:03:19;9.23;;;4.90;;
21848;SDS011;11089;49.852;19.700;2023-03-23T01:06:20;8.68;;;4.55;;
21848;SDS011;11089;49.852;19.700;2023-03-23T01:09:21;7.88;;;4.13;;
21848;SDS011;11089;49.852;19.700;2023-03-23T01:12:23;7.30;;;4.45;;
21848;SDS011;11089;49.852;19.700;2023-03-23T01:15:25;8.75;;;4.78;;
21848;SDS011;11089;49.852;19.700;2023-03-23T01:18:26;6.88;;;4.70;;
21848;SDS011;11089;49.852;19.700;2023-03-23T01:21:27;8.00;;;4.47;;
21848;SDS011;11089;49.852;19.700;2023-03-23T01:24:28;7.53;;;4.97;;
21848;SDS011;11089;49.852;19.700;2023-03-23T01:27:30;8.13;;;5.30;;
21848;SDS011;11089;49.852;19.700;2023-03-23T01:30:31;8.60;;;5.43;;
21848;SDS011;11089;49.852;19.700;2023-03-23T01:33:32;7.80;;;4.82;;
21848;SDS011;11089;49.852;19.700;2023-03-23T01:36:34;6.72;;;4.00;;
21848;SDS011;11089;49.852;19.700;2023-03-23T01:39:35;8.93;;;4.45;;
21848;SDS011;11089;49.852;19.700;2023-03-23T01:42:37;6.55;;;4.20;;
21848;SDS011;11089;49.852;19.700;2023-03-23T01:45:39;7.57;;;4.25;;
21848;SDS011;11089;49.852;19.700;2023-03-23T01:48:40;7.57;;;4.50;;
21848;SDS011;11089;49.852;19.700;2023-03-23T01:52:00;5.93;;;3.95;;
21848;SDS011;11089;49.852;19.700;2023-03-23T01:55:05;9.00;;;4.05;;
21848;SDS011;11089;49.852;19.700;2023-03-23T01:58:06;8.55;;;4.20;;
21848;SDS011;11089;49.852;19.700;2023-03-23T02:01:09;7.30;;;4.63;;
21848;SDS011;11089;49.852;19.700;2023-03-23T02:04:13;6.10;;;4.07;;
21848;SDS011;11089;49.852;19.700;2023-03-23T02:07:17;6.22;;;4.47;;
21848;SDS011;11089;49.852;19.700;2023-03-23T02:10:20;8.27;;;4.30;;
21848;SDS011;11089;49.852;19.700;2023-03-23T02:13:21;5.22;;;3.97;;
21848;SDS011;11089;49.852;19.700;2023-03-23T02:16:31;6.40;;;4.45;;
21848;SDS011;11089;49.852;19.700;2023-03-23T02:23:02;7.57;;;4.10;;
21848;SDS011;11089;49.852;19.700;2023-03-23T02:26:38;7.30;;;4.30;;
21848;SDS011;11089;49.852;19.700;2023-03-23T02:37:03;7.15;;;4.63;;
21848;SDS011;11089;49.852;19.700;2023-03-23T02:43:38;6.13;;;4.05;;
21848;SDS011;11089;49.852;19.700;2023-03-23T02:46:44;6.03;;;4.15;;
21848;SDS011;11089;49.852;19.700;2023-03-23T02:49:45;7.05;;;4.25;;
21848;SDS011;11089;49.852;19.700;2023-03-23T02:52:49;6.05;;;3.72;;
21848;SDS011;11089;49.852;19.700;2023-03-23T02:55:52;7.07;;;4.22;;
21848;SDS011;11089;49.852;19.700;2023-03-23T02:58:55;5.32;;;3.90;;
21848;SDS011;11089;49.852;19.700;2023-03-23T03:02:01;8.23;;;4.43;;
21848;SDS011;11089;49.852;19.700;2023-03-23T03:11:49;7.05;;;4.35;;
21848;SDS011;11089;49.852;19.700;2023-03-23T03:15:01;6.50;;;4.25;;
21848;SDS011;11089;49.852;19.700;2023-03-23T03:21:44;7.40;;;4.05;;
21848;SDS011;11089;49.852;19.700;2023-03-23T03:24:48;6.82;;;3.90;;
21848;SDS011;11089;49.852;19.700;2023-03-23T03:27:51;7.63;;;4.18;;
21848;SDS011;11089;49.852;19.700;2023-03-23T03:30:54;6.32;;;3.72;;
21848;SDS011;11089;49.852;19.700;2023-03-23T03:34:00;4.63;;;3.78;;
21848;SDS011;11089;49.852;19.700;2023-03-23T03:37:01;5.30;;;3.92;;
21848;SDS011;11089;49.852;19.700;2023-03-23T03:40:09;7.85;;;4.00;;
21848;SDS011;11089;49.852;19.700;2023-03-23T03:43:12;5.32;;;3.67;;
21848;SDS011;11089;49.852;19.700;2023-03-23T03:46:13;5.57;;;4.20;;
21848;SDS011;11089;49.852;19.700;2023-03-23T03:49:14;7.13;;;4.22;;
21848;SDS011;11089;49.852;19.700;2023-03-23T03:52:15;8.70;;;4.13;;
21848;SDS011;11089;49.852;19.700;2023-03-23T03:55:16;9.02;;;3.78;;
21848;SDS011;11089;49.852;19.700;2023-03-23T03:58:18;5.13;;;3.95;;
21848;SDS011;11089;49.852;19.700;2023-03-23T04:01:19;4.68;;;3.85;;
21848;SDS011;11089;49.852;19.700;2023-03-23T04:04:22;4.90;;;3.72;;
21848;SDS011;11089;49.852;19.700;2023-03-23T04:07:23;6.90;;;4.35;;
21848;SDS011;11089;49.852;19.700;2023-03-23T04:10:26;4.78;;;3.72;;
21848;SDS011;11089;49.852;19.700;2023-03-23T04:13:29;7.13;;;4.20;;
21848;SDS011;11089;49.852;19.700;2023-03-23T04:16:30;12.85;;;4.95;;
21848;SDS011;11089;49.852;19.700;2023-03-23T04:19:35;4.82;;;3.80;;
21848;SDS011;11089;49.852;19.700;2023-03-23T04:22:36;7.28;;;4.10;;
21848;SDS011;11089;49.852;19.700;2023-03-23T04:25:37;7.35;;;4.13;;
21848;SDS011;11089;49.852;19.700;2023-03-23T04:28:40;5.28;;;4.40;;
21848;SDS011;11089;49.852;19.700;2023-03-23T04:31:41;6.50;;;4.35;;
21848;SDS011;11089;49.852;19.700;2023-03-23T04:34:45;6.75;;;4.00;;
21848;SDS011;11089;49.852;19.700;2023-03-23T04:37:46;5.78;;;3.58;;
21848;SDS011;11089;49.852;19.700;2023-03-23T04:40:47;5.25;;;3.75;;
21848;SDS011;11089;49.852;19.700;2023-03-23T04:43:51;7.00;;;4.03;;
21848;SDS011;11089;49.852;19.700;2023-03-23T04:46:54;5.50;;;3.92;;
21848;SDS011;11089;49.852;19.700;2023-03-23T04:49:56;6.00;;;4.22;;
21848;SDS011;11089;49.852;19.700;2023-03-23T04:52:57;4.38;;;3.55;;
21848;SDS011;11089;49.852;19.700;2023-03-23T04:55:59;9.50;;;4.95;;
21848;SDS011;11089;49.852;19.700;2023-03-23T04:59:01;6.38;;;4.07;;
21848;SDS011;11089;49.852;19.700;2023-03-23T05:02:02;6.15;;;4.50;;
21848;SDS011;11089;49.852;19.700;2023-03-23T05:05:03;5.38;;;4.13;;
21848;SDS011;11089;49.852;19.700;2023-03-23T05:08:04;5.50;;;4.22;;
21848;SDS011;11089;49.852;19.700;2023-03-23T05:11:05;5.72;;;4.03;;
21848;SDS011;11089;49.852;19.700;2023-03-23T05:14:07;6.82;;;4.13;;
21848;SDS011;11089;49.852;19.700;2023-03-23T05:17:08;5.53;;;4.18;;
21848;SDS011;11089;49.852;19.700;2023-03-23T05:20:10;6.50;;;4.32;;
21848;SDS011;11089;49.852;19.700;2023-03-23T05:23:12;8.32;;;4.20;;
21848;SDS011;11089;49.852;19.700;2023-03-23T05:26:14;5.57;;;3.95;;
21848;SDS011;11089;49.852;19.700;2023-03-23T05:29:15;6.45;;;4.22;;
21848;SDS011;11089;49.852;19.700;2023-03-23T05:32:16;6.15;;;4.30;;
21848;SDS011;11089;49.852;19.700;2023-03-23T05:35:17;6.90;;;4.28;;
21848;SDS011;11089;49.852;19.700;2023-03-23T05:38:19;6.72;;;4.47;;
21848;SDS011;11089;49.852;19.700;2023-03-23T05:41:20;8.27;;;4.15;;
21848;SDS011;11089;49.852;19.700;2023-03-23T05:44:21;8.57;;;4.43;;
21848;SDS011;11089;49.852;19.700;2023-03-23T05:47:22;7.68;;;4.30;;
21848;SDS011;11089;49.852;19.700;2023-03-23T05:50:23;7.65;;;5.05;;
21848;SDS011;11089;49.852;19.700;2023-03-23T05:53:24;6.07;;;4.18;;
21848;SDS011;11089;49.852;19.700;2023-03-23T05:56:25;6.68;;;4.88;;
21848;SDS011;11089;49.852;19.700;2023-03-23T05:59:26;12.07;;;5.63;;
21848;SDS011;11089;49.852;19.700;2023-03-23T06:02:27;8.95;;;5.35;;
21848;SDS011;11089;49.852;19.700;2023-03-23T06:05:29;10.25;;;5.00;;
21848;SDS011;11089;49.852;19.700;2023-03-23T06:08:30;10.00;;;4.95;;
21848;SDS011;11089;49.852;19.700;2023-03-23T06:11:31;7.53;;;4.53;;
21848;SDS011;11089;49.852;19.700;2023-03-23T06:14:32;6.75;;;4.53;;
21848;SDS011;11089;49.852;19.700;2023-03-23T06:17:34;8.10;;;3.95;;
21848;SDS011;11089;49.852;19.700;2023-03-23T06:20:36;6.75;;;4.25;;
21848;SDS011;11089;49.852;19.700;2023-03-23T06:23:37;6.45;;;4.30;;
21848;SDS011;11089;49.852;19.700;2023-03-23T06:26:39;9.07;;;4.63;;
21848;SDS011;11089;49.852;19.700;2023-03-23T06:29:41;6.90;;;4.35;;
21848;SDS011;11089;49.852;19.700;2023-03-23T06:32:42;4.82;;;3.70;;
21848;SDS011;11089;49.852;19.700;2023-03-23T06:35:46;8.80;;;4.43;;
21848;SDS011;11089;49.852;19.700;2023-03-23T06:38:49;5.97;;;4.35;;
21848;SDS011;11089;49.852;19.700;2023-03-23T06:41:50;6.65;;;4.95;;
21848;SDS011;11089;49.852;19.700;2023-03-23T06:44:51;11.57;;;4.82;;
21848;SDS011;11089;49.852;19.700;2023-03-23T06:47:53;6.15;;;4.25;;
21848;SDS011;11089;49.852;19.700;2023-03-23T06:50:54;5.20;;;4.13;;
21848;SDS011;11089;49.852;19.700;2023-03-23T06:53:55;7.47;;;3.88;;
21848;SDS011;11089;49.852;19.700;2023-03-23T06:56:57;9.95;;;3.70;;
21848;SDS011;11089;49.852;19.700;2023-03-23T06:59:58;5.82;;;3.97;;
21848;SDS011;11089;49.852;19.700;2023-03-23T07:02:59;6.15;;;3.97;;
21848;SDS011;11089;49.852;19.700;2023-03-23T07:06:00;7.20;;;4.20;;
21848;SDS011;11089;49.852;19.700;2023-03-23T07:09:01;4.75;;;3.42;;
21848;SDS011;11089;49.852;19.700;2023-03-23T07:12:03;5.80;;;4.00;;
21848;SDS011;11089;49.852;19.700;2023-03-23T07:15:04;7.78;;;3.90;;
21848;SDS011;11089;49.852;19.700;2023-03-23T07:18:09;5.43;;;3.88;;
21848;SDS011;11089;49.852;19.700;2023-03-23T07:21:11;6.45;;;4.15;;
21848;SDS011;11089;49.852;19.700;2023-03-23T07:24:12;5.85;;;3.97;;
21848;SDS011;11089;49.852;19.700;2023-03-23T07:27:14;6.97;;;4.30;;
21848;SDS011;11089;49.852;19.700;2023-03-23T07:30:15;6.68;;;4.00;;
21848;SDS011;11089;49.852;19.700;2023-03-23T07:33:16;6.43;;;4.10;;
21848;SDS011;11089;49.852;19.700;2023-03-23T07:36:18;5.55;;;3.83;;
21848;SDS011;11089;49.852;19.700;2023-03-23T07:39:19;6.07;;;4.07;;
21848;SDS011;11089;49.852;19.700;2023-03-23T07:42:20;6.43;;;4.38;;
21848;SDS011;11089;49.852;19.700;2023-03-23T07:45:21;5.45;;;3.72;;
21848;SDS011;11089;49.852;19.700;2023-03-23T07:48:22;6.28;;;4.55;;
21848;SDS011;11089;49.852;19.700;2023-03-23T07:51:23;6.43;;;4.25;;
21848;SDS011;11089;49.852;19.700;2023-03-23T07:54:24;6.07;;;3.72;;
21848;SDS011;11089;49.852;19.700;2023-03-23T07:57:25;6.78;;;4.18;;
21848;SDS011;11089;49.852;19.700;2023-03-23T08:00:27;5.35;;;3.80;;
21848;SDS011;11089;49.852;19.700;2023-03-23T08:03:28;5.97;;;4.03;;
21848;SDS011;11089;49.852;19.700;2023-03-23T08:06:31;6.70;;;4.10;;
21848;SDS011;11089;49.852;19.700;2023-03-23T08:09:33;5.70;;;3.83;;
21848;SDS011;11089;49.852;19.700;2023-03-23T08:12:34;5.97;;;4.05;;
21848;SDS011;11089;49.852;19.700;2023-03-23T08:15:35;8.05;;;3.88;;
21848;SDS011;11089;49.852;19.700;2023-03-23T08:18:38;5.40;;;3.60;;
21848;SDS011;11089;49.852;19.700;2023-03-23T08:21:39;5.80;;;3.83;;
21848;SDS011;11089;49.852;19.700;2023-03-23T08:24:40;5.40;;;3.72;;
21848;SDS011;11089;49.852;19.700;2023-03-23T08:27:41;4.43;;;3.58;;
21848;SDS011;11089;49.852;19.700;2023-03-23T08:30:43;5.55;;;3.35;;
21848;SDS011;11089;49.852;19.700;2023-03-23T08:33:44;8.48;;;4.20;;
21848;SDS011;11089;49.852;19.700;2023-03-23T08:36:45;5.93;;;3.55;;
21848;SDS011;11089;49.852;19.700;2023-03-23T08:39:46;10.88;;;4.35;;
21848;SDS011;11089;49.852;19.700;2023-03-23T08:42:52;4.60;;;3.58;;
21848;SDS011;11089;49.852;19.700;2023-03-23T08:45:53;5.55;;;3.97;;
21848;SDS011;11089;49.852;19.700;2023-03-23T08:48:54;6.47;;;4.18;;
21848;SDS011;11089;49.852;19.700;2023-03-23T08:51:55;6.15;;;3.90;;
21848;SDS011;11089;49.852;19.700;2023-03-23T08:54:56;7.55;;;4.13;;
21848;SDS011;11089;49.852;19.700;2023-03-23T08:57:57;7.13;;;4.32;;
21848;SDS011;11089;49.852;19.700;2023-03-23T09:00:58;7.55;;;4.55;;
21848;SDS011;11089;49.852;19.700;2023-03-23T09:04:00;6.15;;;4.40;;
21848;SDS011;11089;49.852;19.700;2023-03-23T09:07:01;5.22;;;3.75;;
21848;SDS011;11089;49.852;19.700;2023-03-23T09:10:02;6.20;;;4.10;;
21848;SDS011;11089;49.852;19.700;2023-03-23T09:13:04;10.48;;;4.82;;
21848;SDS011;11089;49.852;19.700;2023-03-23T09:16:06;5.15;;;3.75;;
21848;SDS011;11089;49.852;19.700;2023-03-23T09:19:08;6.55;;;4.13;;
21848;SDS011;11089;49.852;19.700;2023-03-23T09:22:09;9.95;;;4.18;;
21848;SDS011;11089;49.852;19.700;2023-03-23T09:25:11;6.13;;;4.53;;
21848;SDS011;11089;49.852;19.700;2023-03-23T09:28:14;6.25;;;4.13;;
21848;SDS011;11089;49.852;19.700;2023-03-23T09:31:15;6.53;;;3.78;;
21848;SDS011;11089;49.852;19.700;2023-03-23T09:34:16;6.97;;;3.05;;
21848;SDS011;11089;49.852;19.700;2023-03-23T09:37:17;5.47;;;3.55;;
21848;SDS011;11089;49.852;19.700;2023-03-23T09:40:20;5.10;;;3.88;;
21848;SDS011;11089;49.852;19.700;2023-03-23T09:47:12;4.93;;;3.05;;
21848;SDS011;11089;49.852;19.700;2023-03-23T09:50:19;4.90;;;3.22;;
21848;SDS011;11089;49.852;19.700;2023-03-23T09:53:34;4.35;;;3.50;;
21848;SDS011;11089;49.852;19.700;2023-03-23T09:56:39;4.50;;;3.10;;
21848;SDS011;11089;49.852;19.700;2023-03-23T09:59:41;4.40;;;2.80;;
21848;SDS011;11089;49.852;19.700;2023-03-23T10:02:54;7.05;;;3.50;;
21848;SDS011;11089;49.852;19.700;2023-03-23T10:06:14;5.93;;;3.65;;
21848;SDS011;11089;49.852;19.700;2023-03-23T10:09:20;7.15;;;2.92;;
21848;SDS011;11089;49.852;19.700;2023-03-23T10:12:24;4.65;;;3.08;;
21848;SDS011;11089;49.852;19.700;2023-03-23T10:15:35;4.20;;;2.90;;
21848;SDS011;11089;49.852;19.700;2023-03-23T10:18:43;6.05;;;2.90;;
21848;SDS011;11089;49.852;19.700;2023-03-23T10:21:56;4.55;;;3.10;;
21848;SDS011;11089;49.852;19.700;2023-03-23T10:25:08;4.85;;;3.25;;
21848;SDS011;11089;49.852;19.700;2023-03-23T10:28:17;3.40;;;2.78;;
21848;SDS011;11089;49.852;19.700;2023-03-23T10:31:23;4.10;;;2.97;;
21848;SDS011;11089;49.852;19.700;2023-03-23T10:34:38;4.35;;;3.00;;
21848;SDS011;11089;49.852;19.700;2023-03-23T10:37:43;3.75;;;3.03;;
21848;SDS011;11089;49.852;19.700;2023-03-23T10:40:54;3.65;;;2.72;;
21848;SDS011;11089;49.852;19.700;2023-03-23T10:43:58;4.18;;;2.72;;
21848;SDS011;11089;49.852;19.700;2023-03-23T10:47:07;5.68;;;2.90;;
21848;SDS011;11089;49.852;19.700;2023-03-23T10:50:15;3.85;;;2.78;;
21848;SDS011;11089;49.852;19.700;2023-03-23T10:53:23;3.88;;;2.40;;
21848;SDS011;11089;49.852;19.700;2023-03-23T10:59:45;3.90;;;2.63;;
21848;SDS011;11089;49.852;19.700;2023-03-23T11:06:27;4.75;;;2.90;;
21848;SDS011;11089;49.852;19.700;2023-03-23T11:09:35;4.78;;;2.83;;
21848;SDS011;11089;49.852;19.700;2023-03-23T11:12:38;4.25;;;3.10;;
21848;SDS011;11089;49.852;19.700;2023-03-23T11:15:40;3.90;;;2.92;;
21848;SDS011;11089;49.852;19.700;2023-03-23T11:18:42;5.10;;;2.40;;
21848;SDS011;11089;49.852;19.700;2023-03-23T11:21:50;5.45;;;2.92;;
21848;SDS011;11089;49.852;19.700;2023-03-23T11:24:55;4.75;;;2.58;;
21848;SDS011;11089;49.852;19.700;2023-03-23T11:27:59;5.28;;;2.70;;
21848;SDS011;11089;49.852;19.700;2023-03-23T11:31:02;5.38;;;3.25;;
21848;SDS011;11089;49.852;19.700;2023-03-23T11:37:29;4.95;;;3.05;;
21848;SDS011;11089;49.852;19.700;2023-03-23T11:40:43;4.55;;;2.97;;
21848;SDS011;11089;49.852;19.700;2023-03-23T11:43:50;3.63;;;2.67;;
21848;SDS011;11089;49.852;19.700;2023-03-23T11:47:00;4.35;;;2.80;;
21848;SDS011;11089;49.852;19.700;2023-03-23T11:50:21;4.22;;;2.58;;
21848;SDS011;11089;49.852;19.700;2023-03-23T11:53:39;3.65;;;2.55;;
21848;SDS011;11089;49.852;19.700;2023-03-23T11:56:57;4.13;;;2.83;;
21848;SDS011;11089;49.852;19.700;2023-03-23T11:59:58;2.40;;;2.05;;
21848;SDS011;11089;49.852;19.700;2023-03-23T12:10:11;3.70;;;2.40;;
21848;SDS011;11089;49.852;19.700;2023-03-23T12:19:59;4.25;;;2.92;;
21848;SDS011;11089;49.852;19.700;2023-03-23T12:23:24;4.22;;;2.47;;
21848;SDS011;11089;49.852;19.700;2023-03-23T12:27:33;4.00;;;2.33;;
21848;SDS011;11089;49.852;19.700;2023-03-23T12:43:31;4.22;;;2.47;;
21848;SDS011;11089;49.852;19.700;2023-03-23T12:50:35;5.05;;;2.88;;
21848;SDS011;11089;49.852;19.700;2023-03-23T12:54:00;3.10;;;2.30;;
21848;SDS011;11089;49.852;19.700;2023-03-23T12:57:12;2.85;;;2.42;;
21848;SDS011;11089;49.852;19.700;2023-03-23T13:00:28;2.97;;;2.25;;
21848;SDS011;11089;49.852;19.700;2023-03-23T13:06:48;4.50;;;2.78;;
21848;SDS011;11089;49.852;19.700;2023-03-23T13:10:02;10.20;;;4.30;;
21848;SDS011;11089;49.852;19.700;2023-03-23T13:13:26;10.50;;;4.90;;
21848;SDS011;11089;49.852;19.700;2023-03-23T13:19:56;6.07;;;3.53;;
21848;SDS011;11089;49.852;19.700;2023-03-23T13:23:23;4.28;;;2.92;;
21848;SDS011;11089;49.852;19.700;2023-03-23T13:26:30;4.53;;;3.05;;
21848;SDS011;11089;49.852;19.700;2023-03-23T13:29:32;4.70;;;3.60;;
21848;SDS011;11089;49.852;19.700;2023-03-23T13:32:35;4.63;;;3.25;;
21848;SDS011;11089;49.852;19.700;2023-03-23T13:35:38;4.72;;;3.20;;
21848;SDS011;11089;49.852;19.700;2023-03-23T13:38:45;4.68;;;3.10;;
21848;SDS011;11089;49.852;19.700;2023-03-23T13:45:23;5.18;;;2.90;;
21848;SDS011;11089;49.852;19.700;2023-03-23T13:51:51;5.97;;;3.28;;
21848;SDS011;11089;49.852;19.700;2023-03-23T13:58:24;4.05;;;3.35;;
21848;SDS011;11089;49.852;19.700;2023-03-23T14:01:32;5.93;;;2.80;;
21848;SDS011;11089;49.852;19.700;2023-03-23T14:04:39;4.30;;;2.88;;
21848;SDS011;11089;49.852;19.700;2023-03-23T14:07:51;4.55;;;3.05;;
21848;SDS011;11089;49.852;19.700;2023-03-23T14:11:11;5.13;;;2.80;;
21848;SDS011;11089;49.852;19.700;2023-03-23T14:14:31;6.95;;;3.33;;
21848;SDS011;11089;49.852;19.700;2023-03-23T14:17:39;5.38;;;3.20;;
21848;SDS011;11089;49.852;19.700;2023-03-23T14:20:45;6.80;;;3.33;;
21848;SDS011;11089;49.852;19.700;2023-03-23T14:23:47;4.32;;;3.30;;
21848;SDS011;11089;49.852;19.700;2023-03-23T14:26:48;4.63;;;3.30;;
21848;SDS011;11089;49.852;19.700;2023-03-23T14:30:04;6.30;;;3.78;;
21848;SDS011;11089;49.852;19.700;2023-03-23T14:33:07;5.72;;;3.97;;
21848;SDS011;11089;49.852;19.700;2023-03-23T14:36:12;3.85;;;2.80;;
21848;SDS011;11089;49.852;19.700;2023-03-23T14:42:31;8.73;;;4.20;;
21848;SDS011;11089;49.852;19.700;2023-03-23T14:45:35;8.05;;;3.80;;
21848;SDS011;11089;49.852;19.700;2023-03-23T14:48:37;5.30;;;3.83;;
21848;SDS011;11089;49.852;19.700;2023-03-23T14:51:46;5.95;;;3.33;;
21848;SDS011;11089;49.852;19.700;2023-03-23T14:54:52;3.47;;;2.85;;
21848;SDS011;11089;49.852;19.700;2023-03-23T14:57:53;5.13;;;3.80;;
21848;SDS011;11089;49.852;19.700;2023-03-23T15:04:11;5.18;;;3.08;;
21848;SDS011;11089;49.852;19.700;2023-03-23T15:07:19;8.13;;;4.47;;
21848;SDS011;11089;49.852;19.700;2023-03-23T15:10:22;12.32;;;5.97;;
21848;SDS011;11089;49.852;19.700;2023-03-23T15:13:23;7.82;;;5.18;;
21848;SDS011;11089;49.852;19.700;2023-03-23T15:16:32;9.07;;;5.63;;
21848;SDS011;11089;49.852;19.700;2023-03-23T15:19:35;9.68;;;5.80;;
21848;SDS011;11089;49.852;19.700;2023-03-23T15:22:44;9.30;;;6.22;;
21848;SDS011;11089;49.852;19.700;2023-03-23T15:25:53;13.32;;;6.35;;
21848;SDS011;11089;49.852;19.700;2023-03-23T15:29:04;9.80;;;5.88;;
21848;SDS011;11089;49.852;19.700;2023-03-23T15:32:19;8.68;;;5.45;;
21848;SDS011;11089;49.852;19.700;2023-03-23T15:35:35;11.18;;;6.82;;
21848;SDS011;11089;49.852;19.700;2023-03-23T15:38:38;8.38;;;4.88;;
21848;SDS011;11089;49.852;19.700;2023-03-23T15:41:48;8.57;;;4.85;;
21848;SDS011;11089;49.852;19.700;2023-03-23T15:44:58;7.20;;;4.82;;
21848;SDS011;11089;49.852;19.700;2023-03-23T15:48:13;12.10;;;7.03;;
21848;SDS011;11089;49.852;19.700;2023-03-23T15:51:14;8.00;;;4.32;;
21848;SDS011;11089;49.852;19.700;2023-03-23T15:54:21;8.55;;;5.00;;
21848;SDS011;11089;49.852;19.700;2023-03-23T15:57:22;8.13;;;4.78;;
21848;SDS011;11089;49.852;19.700;2023-03-23T16:00:24;12.18;;;5.20;;
21848;SDS011;11089;49.852;19.700;2023-03-23T16:03:28;9.35;;;4.82;;
21848;SDS011;11089;49.852;19.700;2023-03-23T16:06:34;10.63;;;4.85;;
21848;SDS011;11089;49.852;19.700;2023-03-23T16:09:35;6.70;;;4.30;;
21848;SDS011;11089;49.852;19.700;2023-03-23T16:12:36;7.78;;;4.38;;
21848;SDS011;11089;49.852;19.700;2023-03-23T16:15:37;9.45;;;4.78;;
21848;SDS011;11089;49.852;19.700;2023-03-23T16:18:38;12.35;;;5.78;;
21848;SDS011;11089;49.852;19.700;2023-03-23T16:21:39;10.45;;;5.15;;
21848;SDS011;11089;49.852;19.700;2023-03-23T16:24:40;9.65;;;5.18;;
21848;SDS011;11089;49.852;19.700;2023-03-23T16:27:41;12.55;;;6.10;;
21848;SDS011;11089;49.852;19.700;2023-03-23T16:30:43;8.95;;;5.45;;
21848;SDS011;11089;49.852;19.700;2023-03-23T16:33:44;8.23;;;5.00;;
21848;SDS011;11089;49.852;19.700;2023-03-23T16:36:45;8.65;;;5.70;;
21848;SDS011;11089;49.852;19.700;2023-03-23T16:39:46;8.57;;;5.43;;
21848;SDS011;11089;49.852;19.700;2023-03-23T16:42:47;10.13;;;5.88;;
21848;SDS011;11089;49.852;19.700;2023-03-23T16:45:49;11.95;;;5.75;;
21848;SDS011;11089;49.852;19.700;2023-03-23T16:48:56;8.05;;;4.95;;
21848;SDS011;11089;49.852;19.700;2023-03-23T16:51:57;9.80;;;4.65;;
21848;SDS011;11089;49.852;19.700;2023-03-23T16:54:58;8.27;;;4.57;;
21848;SDS011;11089;49.852;19.700;2023-03-23T16:57:59;7.93;;;4.65;;
21848;SDS011;11089;49.852;19.700;2023-03-23T17:01:00;10.23;;;5.47;;
21848;SDS011;11089;49.852;19.700;2023-03-23T17:04:01;11.82;;;6.50;;
21848;SDS011;11089;49.852;19.700;2023-03-23T17:07:03;11.23;;;6.18;;
21848;SDS011;11089;49.852;19.700;2023-03-23T17:10:04;14.50;;;8.15;;
21848;SDS011;11089;49.852;19.700;2023-03-23T17:13:07;12.88;;;7.47;;
21848;SDS011;11089;49.852;19.700;2023-03-23T17:16:08;13.45;;;7.40;;
21848;SDS011;11089;49.852;19.700;2023-03-23T17:19:09;16.75;;;7.13;;
21848;SDS011;11089;49.852;19.700;2023-03-23T17:22:10;16.92;;;8.25;;
21848;SDS011;11089;49.852;19.700;2023-03-23T17:25:11;16.80;;;7.78;;
21848;SDS011;11089;49.852;19.700;2023-03-23T17:28:13;15.05;;;7.75;;
21848;SDS011;11089;49.852;19.700;2023-03-23T17:31:13;19.17;;;7.72;;
21848;SDS011;11089;49.852;19.700;2023-03-23T17:34:15;18.58;;;10.18;;
21848;SDS011;11089;49.852;19.700;2023-03-23T17:37:17;18.58;;;9.20;;
21848;SDS011;11089;49.852;19.700;2023-03-23T17:40:20;32.90;;;14.43;;
21848;SDS011;11089;49.852;19.700;2023-03-23T17:43:20;38.25;;;17.88;;
21848;SDS011;11089;49.852;19.700;2023-03-23T17:46:21;36.42;;;18.63;;
21848;SDS011;11089;49.852;19.700;2023-03-23T17:49:22;33.28;;;18.48;;
21848;SDS011;11089;49.852;19.700;2023-03-23T17:52:23;29.80;;;15.32;;
21848;SDS011;11089;49.852;19.700;2023-03-23T17:55:25;32.35;;;15.90;;
21848;SDS011;11089;49.852;19.700;2023-03-23T17:58:26;24.23;;;12.90;;
21848;SDS011;11089;49.852;19.700;2023-03-23T18:01:27;22.15;;;12.48;;
21848;SDS011;11089;49.852;19.700;2023-03-23T18:04:28;12.68;;;6.75;;
21848;SDS011;11089;49.852;19.700;2023-03-23T18:07:29;13.27;;;7.47;;
21848;SDS011;11089;49.852;19.700;2023-03-23T18:10:30;14.75;;;7.93;;
21848;SDS011;11089;49.852;19.700;2023-03-23T18:13:35;16.85;;;8.57;;
21848;SDS011;11089;49.852;19.700;2023-03-23T18:16:37;16.50;;;8.40;;
21848;SDS011;11089;49.852;19.700;2023-03-23T18:19:38;12.88;;;6.43;;
21848;SDS011;11089;49.852;19.700;2023-03-23T18:22:39;8.57;;;5.53;;
21848;SDS011;11089;49.852;19.700;2023-03-23T18:25:40;11.65;;;5.78;;
21848;SDS011;11089;49.852;19.700;2023-03-23T18:28:41;9.65;;;6.18;;
21848;SDS011;11089;49.852;19.700;2023-03-23T18:31:42;16.10;;;6.68;;
21848;SDS011;11089;49.852;19.700;2023-03-23T18:34:44;14.45;;;6.95;;
21848;SDS011;11089;49.852;19.700;2023-03-23T18:37:46;14.38;;;5.97;;
21848;SDS011;11089;49.852;19.700;2023-03-23T18:40:47;8.75;;;5.20;;
21848;SDS011;11089;49.852;19.700;2023-03-23T18:43:48;9.70;;;5.38;;
21848;SDS011;11089;49.852;19.700;2023-03-23T18:46:49;9.80;;;5.03;;
21848;SDS011;11089;49.852;19.700;2023-03-23T18:49:50;8.13;;;5.13;;
21848;SDS011;11089;49.852;19.700;2023-03-23T18:52:54;8.43;;;5.38;;
21848;SDS011;11089;49.852;19.700;2023-03-23T18:56:05;8.38;;;5.30;;
21848;SDS011;11089;49.852;19.700;2023-03-23T18:59:15;13.30;;;7.07;;
21848;SDS011;11089;49.852;19.700;2023-03-23T19:02:16;12.80;;;6.15;;
21848;SDS011;11089;49.852;19.700;2023-03-23T19:05:17;10.27;;;5.50;;
21848;SDS011;11089;49.852;19.700;2023-03-23T19:08:18;11.45;;;5.85;;
21848;SDS011;11089;49.852;19.700;2023-03-23T19:11:20;9.38;;;5.70;;
21848;SDS011;11089;49.852;19.700;2023-03-23T19:14:24;13.13;;;6.57;;
21848;SDS011;11089;49.852;19.700;2023-03-23T19:17:26;10.85;;;6.68;;
21848;SDS011;11089;49.852;19.700;2023-03-23T19:20:27;11.73;;;5.72;;
21848;SDS011;11089;49.852;19.700;2023-03-23T19:23:28;9.90;;;5.45;;
21848;SDS011;11089;49.852;19.700;2023-03-23T19:26:32;9.93;;;5.90;;
21848;SDS011;11089;49.852;19.700;2023-03-23T19:29:42;10.63;;;5.57;;
21848;SDS011;11089;49.852;19.700;2023-03-23T19:32:43;9.82;;;5.90;;
21848;SDS011;11089;49.852;19.700;2023-03-23T19:35:46;11.15;;;6.03;;
21848;SDS011;11089;49.852;19.700;2023-03-23T19:38:49;9.40;;;5.72;;
21848;SDS011;11089;49.852;19.700;2023-03-23T19:41:52;9.43;;;6.40;;